Time;durP1;ratioP1;P1;durP2;ratioP2;P2;SDS_P1;SDS_P2;PMS_P1;PMS_P2;Temp;Humidity;BMP_temperature;BMP_pressure;BME280_temperature;BME280_humidity;BME280_pressure;Samples;Min_cycle;Max_cycle;Signal;HPM_P1;HPM_P2
2022/06/05 00:00:07;;;;;;;14.43;7.90;;;19.00;99.90;;;;;;5030856;28;20105;-76
2022/06/05 00:02:56;;;;;;;10.85;8.05;;;19.00;99.90;;;;;;5008064;28;20493;-76
2022/06/05 00:05:29;;;;;;;17.08;8.57;;;19.00;99.90;;;;;;5013002;28;20078;-76
2022/06/05 00:08:06;;;;;;;12.32;8.00;;;19.00;99.90;;;;;;5016384;28;20042;-76
2022/06/05 00:10:40;;;;;;;15.23;7.85;;;19.10;99.90;;;;;;5013991;28;20416;-76
2022/06/05 00:13:15;;;;;;;13.57;7.47;;;19.00;99.90;;;;;;5014079;28;20085;-77
2022/06/05 00:15:43;;;;;;;15.57;7.78;;;19.00;99.90;;;;;;5015496;28;20042;-78
2022/06/05 00:18:11;;;;;;;15.70;8.23;;;18.90;99.90;;;;;;5015549;28;20072;-76
2022/06/05 00:20:41;;;;;;;15.23;7.97;;;18.90;99.90;;;;;;5014686;28;20044;-75
2022/06/05 00:23:09;;;;;;;15.00;9.27;;;18.90;99.90;;;;;;5014910;28;20058;-75
2022/06/05 00:25:43;;;;;;;15.23;8.45;;;18.80;99.90;;;;;;5013464;28;20056;-77
2022/06/05 00:28:18;;;;;;;13.25;8.60;;;18.70;99.90;;;;;;5014434;28;20543;-76
2022/06/05 00:30:54;;;;;;;13.80;8.80;;;18.70;99.90;;;;;;5014542;28;20084;-76
2022/06/05 00:33:28;;;;;;;12.98;8.10;;;18.70;99.90;;;;;;5013248;28;20085;-75
2022/06/05 00:36:03;;;;;;;15.27;7.78;;;18.70;99.90;;;;;;5015033;28;20072;-77
2022/06/05 00:38:41;;;;;;;14.25;7.68;;;18.70;99.90;;;;;;5014802;28;20050;-76
2022/06/05 00:41:31;;;;;;;13.77;7.28;;;18.60;99.90;;;;;;5014768;28;20099;-77
2022/06/05 00:44:01;;;;;;;16.88;7.80;;;18.60;99.90;;;;;;5029765;28;20100;-77
2022/06/05 00:46:30;;;;;;;12.68;8.10;;;18.50;99.90;;;;;;5014576;28;20041;-77
2022/06/05 00:48:57;;;;;;;14.10;7.22;;;18.50;99.90;;;;;;5013100;28;20050;-76
2022/06/05 00:51:26;;;;;;;14.70;7.30;;;18.50;99.90;;;;;;5014973;28;20408;-76
2022/06/05 00:53:53;;;;;;;14.00;7.15;;;18.50;99.90;;;;;;5013504;28;20129;-76
2022/06/05 00:56:20;;;;;;;16.48;7.45;;;18.50;99.90;;;;;;5028532;28;20046;-76
2022/06/05 00:58:47;;;;;;;14.65;7.85;;;18.50;99.90;;;;;;5015478;28;20472;-76
2022/06/05 01:01:15;;;;;;;11.25;6.72;;;18.40;99.90;;;;;;5015285;28;20488;-77
2022/06/05 01:03:42;;;;;;;10.57;7.13;;;18.30;99.90;;;;;;5014205;28;20096;-76
2022/06/05 01:06:09;;;;;;;13.88;7.95;;;18.20;99.90;;;;;;5013263;28;20050;-75
2022/06/05 01:08:38;;;;;;;15.68;7.15;;;18.20;99.90;;;;;;5013443;28;20054;-76
2022/06/05 01:11:15;;;;;;;11.23;7.63;;;18.20;99.90;;;;;;5014094;28;20437;-76
2022/06/05 01:14:03;;;;;;;14.18;7.82;;;18.20;99.90;;;;;;5012543;28;20056;-77
2022/06/05 01:16:36;;;;;;;11.55;7.55;;;18.20;99.90;;;;;;5014488;28;20554;-76
2022/06/05 01:19:18;;;;;;;12.45;6.70;;;18.20;99.90;;;;;;5014159;28;20053;-77
2022/06/05 01:21:58;;;;;;;16.92;7.53;;;18.20;99.90;;;;;;5014116;28;20434;-76
2022/06/05 01:24:51;;;;;;;7.97;6.50;;;18.30;99.90;;;;;;5014236;28;20045;-76
2022/06/05 01:27:24;;;;;;;10.50;7.30;;;18.30;99.90;;;;;;5013738;28;20496;-77
2022/06/05 01:29:55;;;;;;;11.82;6.97;;;18.20;99.90;;;;;;5013103;28;20050;-75
2022/06/05 01:32:30;;;;;;;12.05;6.95;;;18.20;99.90;;;;;;5013708;28;20050;-77
2022/06/05 01:35:05;;;;;;;15.30;7.30;;;18.20;99.90;;;;;;5014066;28;20069;-76
2022/06/05 01:37:37;;;;;;;14.15;7.32;;;18.20;99.90;;;;;;5013609;28;20050;-76
2022/06/05 01:40:10;;;;;;;12.63;7.65;;;18.10;99.90;;;;;;5013554;28;20145;-76
2022/06/05 01:42:42;;;;;;;11.90;7.43;;;18.00;99.90;;;;;;5013494;28;20617;-76
2022/06/05 01:45:16;;;;;;;15.45;7.68;;;17.90;99.90;;;;;;5013988;28;20069;-76
2022/06/05 01:47:49;;;;;;;13.27;7.78;;;17.90;99.90;;;;;;5013958;28;20404;-77
2022/06/05 01:50:20;;;;;;;13.20;6.90;;;17.90;99.90;;;;;;5013906;28;20068;-76
2022/06/05 01:52:52;;;;;;;16.45;7.70;;;17.90;99.90;;;;;;5013529;28;20448;-76
2022/06/05 01:55:23;;;;;;;11.90;7.75;;;17.90;99.90;;;;;;5012643;28;20477;-77
2022/06/05 01:57:55;;;;;;;10.98;6.97;;;18.00;99.90;;;;;;5014299;28;20073;-76
2022/06/05 02:00:24;;;;;;;13.57;7.70;;;17.90;99.90;;;;;;5013880;28;20054;-75
2022/06/05 02:02:55;;;;;;;14.27;7.05;;;17.90;99.90;;;;;;5012931;28;20073;-76
2022/06/05 02:05:28;;;;;;;14.82;7.32;;;17.90;99.90;;;;;;5014272;28;20034;-77
2022/06/05 02:08:01;;;;;;;12.27;7.43;;;17.80;99.90;;;;;;5019420;28;20042;-76
2022/06/05 02:10:34;;;;;;;10.75;7.28;;;17.80;99.90;;;;;;5019169;28;20088;-77
2022/06/05 02:13:03;;;;;;;14.00;7.70;;;17.80;99.90;;;;;;5014579;28;20112;-76
2022/06/05 02:15:31;;;;;;;14.02;6.93;;;17.70;99.90;;;;;;5013371;28;20048;-77
2022/06/05 02:17:59;;;;;;;11.65;7.15;;;17.70;99.90;;;;;;5013491;28;20522;-77
2022/06/05 02:20:27;;;;;;;12.10;6.88;;;17.60;99.90;;;;;;5013409;28;20042;-77
2022/06/05 02:22:55;;;;;;;14.55;7.25;;;17.60;99.90;;;;;;5017053;28;20049;-76
2022/06/05 02:25:25;;;;;;;16.00;7.47;;;17.60;99.90;;;;;;5017076;28;20046;-74
2022/06/05 02:27:57;;;;;;;11.82;6.93;;;17.50;99.90;;;;;;5016093;28;20464;-77
2022/06/05 02:30:34;;;;;;;11.48;7.03;;;17.50;99.90;;;;;;5016864;28;20048;-76
2022/06/05 02:33:09;;;;;;;13.98;6.82;;;17.50;99.90;;;;;;5016807;28;20116;-77
2022/06/05 02:35:46;;;;;;;13.75;7.15;;;17.60;99.90;;;;;;5017282;28;20065;-75
2022/06/05 02:38:29;;;;;;;10.13;7.00;;;17.50;99.90;;;;;;5016864;28;20045;-76
2022/06/05 02:41:03;;;;;;;10.38;6.75;;;17.50;99.90;;;;;;5016920;28;20045;-76
2022/06/05 02:43:38;;;;;;;13.07;7.13;;;17.50;99.90;;;;;;5015871;28;20076;-76
2022/06/05 02:46:12;;;;;;;15.38;7.35;;;17.50;99.90;;;;;;5019591;28;20551;-76
2022/06/05 02:48:49;;;;;;;11.65;7.25;;;17.50;99.90;;;;;;5017402;28;20472;-77
2022/06/05 02:51:20;;;;;;;10.50;7.22;;;17.50;99.90;;;;;;5016553;28;20054;-76
2022/06/05 02:53:49;;;;;;;15.25;6.57;;;17.50;99.90;;;;;;5016134;28;20042;-76
2022/06/05 02:56:17;;;;;;;9.35;6.22;;;17.40;99.90;;;;;;5017174;28;20050;-76
2022/06/05 02:58:45;;;;;;;14.18;6.60;;;17.40;99.90;;;;;;5021036;28;20061;-75
2022/06/05 03:03:58;;;;;;;10.30;6.95;;;17.40;99.90;;;;;;5025051;28;20042;-76
2022/06/05 03:06:26;;;;;;;13.07;7.32;;;17.40;99.90;;;;;;5023427;28;20488;-76
2022/06/05 03:08:53;;;;;;;11.65;7.35;;;17.40;99.90;;;;;;5016429;28;20046;-76
2022/06/05 03:11:20;;;;;;;13.07;7.10;;;17.40;99.90;;;;;;5014687;28;20049;-75
2022/06/05 03:13:47;;;;;;;11.60;7.00;;;17.40;99.90;;;;;;5014420;28;20052;-77
2022/06/05 03:16:16;;;;;;;13.32;6.95;;;17.50;99.90;;;;;;5015941;28;20068;-76
2022/06/05 03:18:43;;;;;;;10.88;6.60;;;17.50;99.90;;;;;;5016093;28;20045;-76
2022/06/05 03:21:11;;;;;;;18.38;7.53;;;17.60;99.90;;;;;;5016146;28;20097;-76
2022/06/05 03:23:38;;;;;;;9.65;6.30;;;17.60;99.90;;;;;;5014703;28;20124;-76
2022/06/05 03:26:09;;;;;;;25.67;8.00;;;17.60;99.90;;;;;;5017342;28;20452;-75
2022/06/05 03:28:36;;;;;;;15.20;6.20;;;17.70;99.90;;;;;;5017046;28;20457;-76
2022/06/05 03:31:04;;;;;;;19.65;7.40;;;17.80;99.90;;;;;;5017963;28;20052;-76
2022/06/05 03:33:34;;;;;;;22.55;8.60;;;18.00;99.90;;;;;;5017504;28;20484;-75
2022/06/05 03:36:01;;;;;;;14.35;7.03;;;18.10;99.90;;;;;;5018877;28;20108;-77
2022/06/05 03:38:28;;;;;;;10.10;5.78;;;18.10;99.90;;;;;;5018601;28;20551;-77
2022/06/05 03:40:55;;;;;;;11.68;5.85;;;18.20;99.90;;;;;;5017001;28;20038;-75
2022/06/05 03:43:23;;;;;;;12.93;5.88;;;18.30;99.90;;;;;;5015642;28;20107;-75
2022/06/05 03:45:50;;;;;;;15.30;5.90;;;18.40;99.90;;;;;;5016233;28;20041;-76
2022/06/05 03:48:17;;;;;;;15.57;6.38;;;18.50;99.90;;;;;;5016385;28;20050;-74
2022/06/05 03:50:46;;;;;;;11.98;6.60;;;18.60;99.90;;;;;;5016979;28;20042;-74
2022/06/05 03:53:13;;;;;;;13.70;6.50;;;18.70;99.90;;;;;;5018448;28;20530;-76
2022/06/05 03:55:41;;;;;;;10.05;5.47;;;19.20;99.90;;;;;;5015181;28;20132;-76
2022/06/05 03:58:08;;;;;;;12.30;5.65;;;19.70;99.90;;;;;;5015877;28;20046;-76
2022/06/05 04:00:35;;;;;;;7.70;5.05;;;20.20;99.90;;;;;;5014583;28;20077;-77
2022/06/05 04:03:03;;;;;;;9.57;5.22;;;20.70;99.90;;;;;;5015190;28;20055;-77
2022/06/05 04:05:30;;;;;;;9.35;5.15;;;21.10;99.90;;;;;;5006907;28;20037;-76
2022/06/05 04:07:59;;;;;;;10.00;4.63;;;21.30;99.90;;;;;;5014822;28;20129;-76
2022/06/05 04:10:26;;;;;;;10.32;4.80;;;21.40;99.90;;;;;;5014661;28;20100;-75
2022/06/05 04:12:53;;;;;;;14.38;5.15;;;21.50;99.90;;;;;;5014529;28;20072;-75
2022/06/05 04:15:21;;;;;;;9.45;5.40;;;21.70;99.90;;;;;;5014720;28;20045;-75
2022/06/05 04:17:48;;;;;;;10.90;4.85;;;22.30;99.90;;;;;;5013651;28;20080;-75
2022/06/05 04:20:15;;;;;;;10.38;4.35;;;23.00;99.90;;;;;;5017844;28;20477;-75
2022/06/05 04:22:43;;;;;;;9.40;4.57;;;23.70;99.90;;;;;;5013332;28;20370;-75
2022/06/05 04:25:15;;;;;;;7.00;4.72;;;24.10;99.90;;;;;;5014860;28;20049;-75
2022/06/05 04:27:43;;;;;;;7.57;4.32;;;24.10;99.90;;;;;;5014839;28;20049;-76
2022/06/05 04:30:10;;;;;;;12.05;5.10;;;24.40;99.90;;;;;;5013231;28;20077;-76
2022/06/05 04:32:38;;;;;;;9.43;4.65;;;25.20;99.90;;;;;;5015042;28;20050;-75
2022/06/05 04:35:07;;;;;;;11.35;5.05;;;25.50;99.90;;;;;;5014614;28;20061;-77
2022/06/05 04:37:34;;;;;;;16.83;5.60;;;25.90;99.90;;;;;;5013720;28;20104;-76
2022/06/05 04:40:01;;;;;;;7.65;4.82;;;26.60;99.90;;;;;;5014531;28;20050;-76
2022/06/05 04:42:31;;;;;;;8.82;5.70;;;27.00;99.90;;;;;;5013637;28;20112;-76
2022/06/05 04:44:58;;;;;;;6.95;4.45;;;27.90;99.90;;;;;;5014047;28;20042;-76
2022/06/05 04:47:26;;;;;;;14.00;6.43;;;28.50;99.90;;;;;;5013210;28;20050;-76
2022/06/05 04:49:53;;;;;;;11.77;5.47;;;28.70;99.90;;;;;;5014117;28;20109;-77
2022/06/05 04:52:20;;;;;;;8.63;5.43;;;29.40;99.90;;;;;;5014658;28;20099;-76
2022/06/05 04:54:48;;;;;;;9.90;4.85;;;29.70;99.90;;;;;;5014218;28;20443;-77
2022/06/05 04:57:15;;;;;;;21.80;5.75;;;30.00;99.90;;;;;;5013868;28;20050;-75
2022/06/05 04:59:44;;;;;;;11.35;6.03;;;30.00;99.90;;;;;;5013898;28;20127;-77
2022/06/05 05:02:11;;;;;;;10.23;4.97;;;30.30;99.90;;;;;;5015008;28;20570;-76
2022/06/05 05:04:40;;;;;;;8.15;4.60;;;30.40;99.90;;;;;;5014274;28;20056;-78
2022/06/05 05:07:07;;;;;;;9.00;4.38;;;30.20;99.90;;;;;;5014376;28;20539;-77
2022/06/05 05:09:34;;;;;;;10.20;4.80;;;29.80;99.90;;;;;;5014813;28;20057;-76
2022/06/05 05:12:01;;;;;;;8.15;4.35;;;29.70;99.90;;;;;;5052595;23;20060;-76
2022/06/05 05:14:29;;;;;;;9.10;4.57;;;29.70;99.90;;;;;;5052571;28;20033;-77
2022/06/05 05:16:57;;;;;;;8.60;4.70;;;29.40;99.90;;;;;;5053576;28;20123;-77
2022/06/05 05:19:25;;;;;;;8.50;5.22;;;29.10;99.90;;;;;;5051946;28;20148;-78
2022/06/05 05:21:52;;;;;;;10.05;5.40;;;29.10;99.90;;;;;;5056251;28;20478;-81
2022/06/05 05:24:19;;;;;;;12.02;5.40;;;29.80;99.90;;;;;;5054120;28;20056;-77
2022/06/05 05:26:46;;;;;;;9.50;5.32;;;30.70;99.90;;;;;;5052220;28;20385;-77
2022/06/05 05:29:14;;;;;;;9.32;4.82;;;31.20;99.90;;;;;;5046197;28;20045;-77
2022/06/05 05:31:44;;;;;;;9.75;5.30;;;31.30;99.90;;;;;;5053029;28;20040;-77
2022/06/05 05:34:14;;;;;;;11.50;5.18;;;31.10;99.90;;;;;;5056936;28;20090;-80
2022/06/05 05:36:42;;;;;;;8.63;5.15;;;30.70;99.90;;;;;;5058278;28;20067;-78
2022/06/05 05:42:06;;;;;;;8.13;5.15;;;29.60;99.90;;;;;;5053984;28;20037;-78
2022/06/05 05:44:36;;;;;;;7.10;4.75;;;29.70;99.90;;;;;;5053999;28;20068;-79
2022/06/05 05:47:06;;;;;;;10.95;5.38;;;29.40;99.90;;;;;;5055903;28;20045;-79
2022/06/05 05:49:35;;;;;;;13.93;5.57;;;28.90;99.90;;;;;;5056103;28;20037;-78
2022/06/05 05:52:02;;;;;;;11.00;5.20;;;29.10;99.90;;;;;;5055676;28;20746;-79
2022/06/05 05:54:29;;;;;;;8.65;5.35;;;28.70;99.90;;;;;;5053804;28;20041;-79
2022/06/05 05:56:57;;;;;;;12.98;5.15;;;28.70;99.90;;;;;;5058331;28;20041;-77
2022/06/05 05:59:25;;;;;;;10.10;5.70;;;28.60;99.90;;;;;;5058125;28;20045;-78
2022/06/05 06:01:52;;;;;;;8.23;5.53;;;28.60;99.90;;;;;;5057013;28;20542;-78
2022/06/05 06:04:20;;;;;;;11.98;5.93;;;28.70;99.90;;;;;;5057843;28;20049;-79
2022/06/05 06:06:50;;;;;;;8.23;5.68;;;29.10;99.90;;;;;;5073108;28;20049;-78
2022/06/05 06:09:18;;;;;;;10.45;5.57;;;29.40;99.90;;;;;;5069834;28;20048;-78
2022/06/05 06:11:45;;;;;;;12.02;7.28;;;29.10;99.90;;;;;;5063630;28;20056;-79
2022/06/05 06:14:12;;;;;;;16.85;10.68;;;29.00;99.90;;;;;;5064110;28;20041;-78
2022/06/05 06:16:40;;;;;;;13.48;7.05;;;29.20;99.90;;;;;;5060059;28;20129;-79
2022/06/05 06:19:08;;;;;;;15.65;7.43;;;29.10;99.90;;;;;;5057611;28;20056;-79
2022/06/05 06:21:35;;;;;;;13.32;6.88;;;29.00;99.90;;;;;;5059294;28;20041;-79
2022/06/05 06:24:04;;;;;;;21.25;8.38;;;29.00;99.90;;;;;;5059881;28;20512;-79
2022/06/05 06:26:31;;;;;;;13.25;6.88;;;29.20;99.90;;;;;;5065693;28;20045;-79
2022/06/05 06:28:58;;;;;;;16.10;7.20;;;29.30;99.90;;;;;;5067502;28;20106;-79
2022/06/05 06:31:26;;;;;;;11.25;5.72;;;29.40;99.90;;;;;;5062275;28;20037;-79
2022/06/05 06:33:53;;;;;;;14.25;6.88;;;29.10;99.90;;;;;;5061620;28;20143;-79
2022/06/05 06:36:21;;;;;;;10.07;6.03;;;28.90;99.90;;;;;;5060093;28;20041;-79
2022/06/05 06:38:48;;;;;;;12.32;6.00;;;28.80;99.90;;;;;;5065049;28;20490;-77
2022/06/05 06:41:20;;;;;;;8.13;5.65;;;28.80;99.90;;;;;;5057316;28;20044;-79
2022/06/05 06:43:49;;;;;;;11.27;5.78;;;28.90;99.90;;;;;;5057506;28;20056;-78
2022/06/05 06:46:17;;;;;;;14.70;6.95;;;29.00;99.90;;;;;;5057231;28;20045;-79
2022/06/05 06:48:45;;;;;;;15.77;6.32;;;28.30;99.90;;;;;;5056806;28;20045;-77
2022/06/05 06:51:13;;;;;;;10.02;6.35;;;28.20;99.90;;;;;;5053761;28;20091;-78
2022/06/05 06:53:42;;;;;;;14.30;5.80;;;28.20;99.90;;;;;;5057364;28;20373;-79
2022/06/05 06:56:12;;;;;;;9.80;5.63;;;27.90;99.90;;;;;;5058214;28;20136;-78
2022/06/05 06:58:42;;;;;;;10.98;5.88;;;28.30;99.90;;;;;;5058243;28;20052;-78
2022/06/05 07:01:10;;;;;;;11.52;5.13;;;28.80;99.90;;;;;;5055622;28;20139;-77
2022/06/05 07:03:38;;;;;;;13.23;4.97;;;29.10;99.90;;;;;;5055683;28;20515;-77
2022/06/05 07:06:08;;;;;;;12.40;6.18;;;29.20;99.90;;;;;;5054787;28;20041;-77
2022/06/05 07:08:36;;;;;;;13.80;5.63;;;29.30;99.90;;;;;;5053744;28;20508;-77
2022/06/05 07:11:05;;;;;;;14.90;5.57;;;29.20;99.90;;;;;;5049604;28;20061;-77
2022/06/05 07:13:33;;;;;;;12.95;6.40;;;29.40;99.90;;;;;;5043425;28;20037;-77
2022/06/05 07:16:01;;;;;;;11.95;7.07;;;29.40;99.90;;;;;;5043751;28;20045;-78
2022/06/05 07:18:29;;;;;;;14.52;6.80;;;29.60;99.90;;;;;;5035729;28;20041;-77
2022/06/05 07:20:56;;;;;;;13.32;6.47;;;29.80;99.90;;;;;;5046143;28;20045;-76
2022/06/05 07:23:23;;;;;;;14.23;6.63;;;29.60;99.90;;;;;;5037262;28;20100;-77
2022/06/05 07:25:53;;;;;;;10.55;6.28;;;29.90;99.90;;;;;;5038077;28;20037;-76
2022/06/05 07:28:20;;;;;;;13.13;6.35;;;30.10;99.90;;;;;;5053813;28;20102;-76
2022/06/05 07:30:49;;;;;;;9.98;5.88;;;29.70;99.90;;;;;;5049465;28;20052;-77
2022/06/05 07:33:18;;;;;;;14.70;6.10;;;29.30;99.90;;;;;;5046328;28;20052;-77
2022/06/05 07:35:46;;;;;;;10.30;5.97;;;29.40;99.90;;;;;;5046869;28;20404;-76
2022/06/05 07:38:13;;;;;;;11.27;6.15;;;29.40;99.90;;;;;;5053060;28;20095;-77
2022/06/05 07:40:41;;;;;;;10.30;6.18;;;29.70;99.90;;;;;;5056723;28;20069;-78
2022/06/05 07:43:10;;;;;;;11.95;6.38;;;29.60;99.90;;;;;;5056599;28;20044;-78
2022/06/05 07:45:38;;;;;;;12.57;7.22;;;29.50;99.90;;;;;;5057934;28;20052;-79
2022/06/05 07:48:06;;;;;;;12.18;7.15;;;29.60;99.90;;;;;;5052637;28;20504;-77
2022/06/05 07:54:26;;;;;;;14.07;6.70;;;29.80;99.90;;;;;;5063188;28;20056;-78
2022/06/05 07:56:06;;;;;;;11.15;6.63;;;30.10;99.90;;;;;;5058161;28;20160;-78
2022/06/05 07:58:34;;;;;;;12.85;6.75;;;30.30;99.90;;;;;;5059946;28;20068;-78
2022/06/05 08:01:01;;;;;;;10.65;6.53;;;30.10;99.90;;;;;;5042873;28;20101;-79
2022/06/05 08:03:28;;;;;;;10.77;5.57;;;30.10;99.90;;;;;;5042021;28;20057;-79
2022/06/05 08:05:57;;;;;;;11.25;5.70;;;30.00;99.90;;;;;;5044010;28;20053;-78
2022/06/05 08:08:24;;;;;;;14.27;6.32;;;29.90;99.90;;;;;;5052105;28;20041;-78
2022/06/05 08:10:52;;;;;;;13.88;6.90;;;29.70;99.90;;;;;;5064330;28;20049;-80
2022/06/05 08:13:19;;;;;;;12.07;6.32;;;29.80;99.90;;;;;;5062536;28;20492;-79
2022/06/05 08:15:46;;;;;;;16.08;7.22;;;29.90;99.90;;;;;;5061658;28;20044;-80
2022/06/05 08:18:15;;;;;;;11.63;6.65;;;30.20;99.90;;;;;;5065224;28;20381;-79
2022/06/05 08:20:42;;;;;;;13.75;6.82;;;30.10;99.90;;;;;;5065474;28;20049;-79
2022/06/05 08:23:11;;;;;;;9.65;6.75;;;30.00;99.90;;;;;;5069305;28;20045;-79
2022/06/05 08:25:38;;;;;;;12.25;6.53;;;29.90;99.90;;;;;;5050588;28;20021;-79
2022/06/05 08:28:05;;;;;;;14.55;6.70;;;29.90;99.90;;;;;;5051394;28;20106;-79
2022/06/05 08:30:33;;;;;;;13.52;6.32;;;30.00;99.90;;;;;;5058568;28;20051;-79
2022/06/05 08:33:00;;;;;;;15.07;7.35;;;29.90;99.90;;;;;;5052302;28;20050;-80
2022/06/05 08:35:28;;;;;;;12.05;6.57;;;30.00;99.90;;;;;;5047956;28;20037;-77
2022/06/05 08:43:44;;;;;;;14.05;7.10;;;29.90;99.90;;;;;;5060082;28;20045;-78
2022/06/05 08:46:17;;;;;;;12.10;6.70;;;30.10;99.90;;;;;;5064075;28;20051;-79
2022/06/05 08:48:50;;;;;;;7.93;5.78;;;30.20;99.90;;;;;;5055465;28;20064;-78
2022/06/05 08:51:26;;;;;;;9.65;6.20;;;30.30;99.90;;;;;;5043616;28;20042;-78
2022/06/05 08:53:57;;;;;;;12.45;6.22;;;30.50;99.90;;;;;;5044232;28;20041;-78
2022/06/05 08:56:33;;;;;;;13.25;6.85;;;30.50;99.90;;;;;;5050794;28;20550;-80
2022/06/05 08:59:05;;;;;;;15.95;6.50;;;30.60;99.90;;;;;;5064525;28;20108;-81
2022/06/05 09:01:40;;;;;;;11.05;5.80;;;30.70;99.90;;;;;;5050488;28;20051;-81
2022/06/05 09:04:24;;;;;;;12.18;6.07;;;30.80;99.90;;;;;;5061606;28;20049;-81
2022/06/05 09:06:56;;;;;;;8.05;5.47;;;30.90;99.90;;;;;;5065235;28;20087;-81
2022/06/05 09:09:26;;;;;;;9.55;5.40;;;31.10;99.90;;;;;;5067475;28;20045;-81
2022/06/05 09:12:02;;;;;;;11.63;5.38;;;31.00;99.90;;;;;;5065207;28;20420;-78
2022/06/05 09:14:37;;;;;;;9.10;4.80;;;30.90;99.90;;;;;;5052174;28;20055;-79
2022/06/05 09:17:09;;;;;;;;;;;30.80;99.90;;;;;;5055914;28;20051;-79
2022/06/05 09:19:36;;;;;;;14.35;5.78;;;30.90;99.90;;;;;;5061377;28;19920;-78
2022/06/05 09:22:10;;;;;;;11.20;5.00;;;31.00;99.90;;;;;;5054788;28;20041;-79
2022/06/05 09:24:59;;;;;;;14.77;5.60;;;31.00;99.90;;;;;;5057159;28;20041;-78
2022/06/05 09:27:40;;;;;;;9.60;5.78;;;31.20;99.90;;;;;;5040414;28;20042;-79
2022/06/05 09:30:12;;;;;;;7.43;5.03;;;31.30;99.90;;;;;;5049689;28;20508;-78
2022/06/05 09:32:56;;;;;;;11.70;6.18;;;31.40;99.90;;;;;;5050784;28;20048;-78
2022/06/05 09:35:31;;;;;;;12.18;5.72;;;31.20;99.90;;;;;;5065146;28;20063;-78
2022/06/05 09:38:03;;;;;;;7.68;4.97;;;31.30;99.90;;;;;;5063146;28;20240;-78
2022/06/05 09:40:34;;;;;;;10.73;4.55;;;31.40;99.90;;;;;;5059144;28;20048;-77
2022/06/05 09:43:26;;;;;;;8.52;4.88;;;31.40;99.90;;;;;;5062154;28;20036;-77
2022/06/05 09:46:09;;;;;;;9.23;5.28;;;31.70;99.90;;;;;;5058456;28;20089;-77
2022/06/05 09:48:45;;;;;;;12.77;6.53;;;31.90;99.90;;;;;;5046911;28;20068;-78
2022/06/05 09:51:17;;;;;;;15.20;6.32;;;32.10;99.90;;;;;;5050008;28;20099;-77
2022/06/05 09:53:54;;;;;;;24.70;17.55;;;32.30;99.90;;;;;;5049890;28;20048;-78
2022/06/05 09:58:24;;;;;;;12.15;6.32;;;32.30;99.90;;;;;;5054883;28;20041;-80
2022/06/05 09:59:36;;;;;;;12.25;4.97;;;32.30;99.90;;;;;;5067377;28;20043;-79
2022/06/05 10:02:06;;;;;;;7.25;4.40;;;32.20;99.90;;;;;;5054743;28;20049;-80
2022/06/05 10:04:36;;;;;;;13.88;5.20;;;32.10;99.90;;;;;;5050278;28;20054;-79
2022/06/05 10:07:08;;;;;;;7.90;5.03;;;32.10;99.90;;;;;;5053185;28;20049;-80
2022/06/05 10:09:44;;;;;;;9.25;4.40;;;31.90;99.90;;;;;;5066198;28;20079;-80
2022/06/05 10:12:21;;;;;;;9.70;4.43;;;31.60;99.90;;;;;;5070483;28;20049;-78
2022/06/05 10:14:54;;;;;;;10.45;4.32;;;31.40;99.90;;;;;;5062569;28;20045;-77
2022/06/05 10:17:40;;;;;;;9.05;4.75;;;31.70;99.90;;;;;;5053999;28;20109;-77
2022/06/05 10:20:29;;;;;;;9.70;4.85;;;31.70;99.90;;;;;;5047993;28;20050;-78
2022/06/05 10:23:04;;;;;;;8.13;4.68;;;31.90;99.90;;;;;;5045523;28;20074;-78
2022/06/05 10:25:37;;;;;;;11.93;4.93;;;31.90;99.90;;;;;;5048703;28;20053;-78
2022/06/05 10:28:15;;;;;;;10.80;4.65;;;32.10;99.90;;;;;;5066590;28;20459;-78
2022/06/05 10:30:56;;;;;;;10.13;4.65;;;32.40;99.90;;;;;;5052263;28;20463;-78
2022/06/05 10:33:35;;;;;;;8.10;4.78;;;32.30;99.90;;;;;;5052896;28;20456;-78
2022/06/05 10:36:10;;;;;;;9.57;5.03;;;32.20;99.90;;;;;;5059209;28;20081;-77
2022/06/05 10:38:44;;;;;;;13.77;5.97;;;32.30;99.90;;;;;;5056392;28;20045;-78
2022/06/05 10:41:22;;;;;;;9.27;4.97;;;32.50;99.90;;;;;;5044866;28;20046;-78
2022/06/05 10:44:13;;;;;;;9.73;5.03;;;32.70;99.90;;;;;;5041032;28;20045;-77
2022/06/05 10:47:01;;;;;;;9.68;4.85;;;32.70;99.90;;;;;;5040094;28;20514;-77
2022/06/05 10:49:33;;;;;;;14.98;5.88;;;32.30;99.90;;;;;;5042531;28;20064;-77
2022/06/05 10:52:13;;;;;;;11.38;6.18;;;32.10;99.90;;;;;;5044650;28;20042;-77
2022/06/05 10:54:51;;;;;;;11.13;5.18;;;32.30;99.90;;;;;;5043128;28;20053;-77
2022/06/05 10:57:22;;;;;;;9.98;4.88;;;32.50;99.90;;;;;;5045883;28;20121;-79
2022/06/05 10:59:59;;;;;;;13.07;5.65;;;32.70;99.90;;;;;;5040333;28;20046;-77
2022/06/05 11:02:47;;;;;;;11.60;5.57;;;32.80;99.90;;;;;;5038811;28;20125;-77
2022/06/05 11:05:32;;;;;;;11.85;5.28;;;33.10;99.90;;;;;;5038986;28;20398;-79
2022/06/05 11:08:09;;;;;;;15.57;6.55;;;33.10;99.90;;;;;;5056295;28;20053;-78
2022/06/05 11:13:40;;;;;;;10.33;5.30;;;33.20;99.90;;;;;;5080423;22;20048;-78
2022/06/05 11:16:18;;;;;;;13.10;5.07;;;33.20;99.90;;;;;;5059464;28;20107;-77
2022/06/05 11:18:52;;;;;;;13.02;4.85;;;33.30;99.90;;;;;;5057257;28;20057;-77
2022/06/05 11:21:22;;;;;;;12.82;5.00;;;33.40;99.90;;;;;;5054768;28;20049;-77
2022/06/05 11:23:54;;;;;;;12.82;5.25;;;33.40;99.90;;;;;;5036422;28;20041;-79
2022/06/05 11:26:29;;;;;;;11.20;4.97;;;33.60;99.90;;;;;;5038693;28;20041;-78
2022/06/05 11:29:11;;;;;;;13.48;6.65;;;33.80;99.90;;;;;;5045719;28;20041;-77
2022/06/05 11:31:48;;;;;;;15.00;5.75;;;33.90;99.90;;;;;;5034874;28;20754;-78
2022/06/05 11:34:33;;;;;;;12.98;5.47;;;34.10;99.90;;;;;;5024482;28;20117;-78
2022/06/05 11:37:33;;;;;;;17.33;6.10;;;34.00;99.90;;;;;;5026936;28;20041;-78
2022/06/05 11:40:11;;;;;;;13.98;6.97;;;34.00;99.90;;;;;;5024639;28;20049;-78
2022/06/05 11:42:47;;;;;;;17.25;7.63;;;34.00;99.90;;;;;;5037556;28;20049;-77
2022/06/05 11:45:42;;;;;;;18.90;7.20;;;34.00;99.90;;;;;;5040844;28;20076;-77
2022/06/05 11:48:17;;;;;;;16.73;7.63;;;33.90;99.90;;;;;;5037312;28;20041;-77
2022/06/05 11:50:54;;;;;;;13.35;5.65;;;33.90;99.90;;;;;;5037502;28;20045;-79
2022/06/05 11:53:28;;;;;;;15.30;5.70;;;33.90;99.90;;;;;;5037276;28;20123;-76
2022/06/05 11:56:04;;;;;;;15.45;6.28;;;33.80;99.90;;;;;;5037206;28;20459;-78
2022/06/05 11:58:42;;;;;;;12.15;5.22;;;33.70;99.90;;;;;;5039572;28;20034;-76
2022/06/05 12:01:13;;;;;;;14.10;6.75;;;33.60;99.90;;;;;;5035255;28;20049;-76
2022/06/05 12:03:44;;;;;;;10.43;6.68;;;33.50;99.90;;;;;;5034468;28;20064;-77
2022/06/05 12:06:21;;;;;;;13.63;6.43;;;33.30;99.90;;;;;;5032506;28;20052;-76
2022/06/05 12:08:51;;;;;;;13.63;7.20;;;33.10;99.90;;;;;;5034540;28;20050;-76
2022/06/05 12:11:23;;;;;;;14.93;7.60;;;33.10;99.90;;;;;;5036120;28;20041;-76
2022/06/05 12:14:13;;;;;;;17.80;9.02;;;32.80;99.90;;;;;;5039491;28;20054;-75
2022/06/05 12:16:48;;;;;;;11.98;7.55;;;32.80;99.90;;;;;;5020424;28;20111;-75
2022/06/05 12:19:27;;;;;;;13.50;7.55;;;32.70;99.90;;;;;;5024890;28;20060;-76
2022/06/05 12:22:03;;;;;;;10.25;6.90;;;32.80;99.90;;;;;;5038672;28;20037;-78
2022/06/05 12:24:41;;;;;;;13.77;7.07;;;32.70;99.90;;;;;;5032349;28;20049;-77
2022/06/05 12:27:11;;;;;;;12.93;7.15;;;32.60;99.90;;;;;;5037808;28;20041;-77
2022/06/05 12:29:44;;;;;;;14.38;6.88;;;32.60;99.90;;;;;;5020162;28;20046;-77
2022/06/05 12:32:16;;;;;;;14.02;6.82;;;32.60;99.90;;;;;;5015573;28;20073;-78
2022/06/05 12:34:51;;;;;;;13.20;7.47;;;32.40;99.90;;;;;;5021669;28;20500;-77
2022/06/05 12:37:23;;;;;;;15.02;8.75;;;32.40;99.90;;;;;;5030324;28;20103;-76
2022/06/05 12:39:53;;;;;;;12.48;7.68;;;32.20;99.90;;;;;;5034998;28;20041;-77
2022/06/05 12:42:31;;;;;;;13.27;7.50;;;32.00;99.90;;;;;;5041970;28;20139;-78
2022/06/05 12:45:02;;;;;;;10.50;7.60;;;31.80;99.90;;;;;;5019636;28;20512;-77
2022/06/05 12:47:58;;;;;;;15.45;7.57;;;32.00;99.90;;;;;;5038056;28;20049;-77
2022/06/05 12:50:45;;;;;;;10.48;7.72;;;32.10;99.90;;;;;;5025627;28;20033;-77
2022/06/05 12:53:32;;;;;;;14.73;7.30;;;32.20;99.90;;;;;;5026250;28;20045;-77
2022/06/05 12:56:12;;;;;;;15.20;7.00;;;32.30;99.90;;;;;;5016399;28;20049;-76
2022/06/05 12:58:51;;;;;;;15.68;7.72;;;32.30;99.90;;;;;;5015877;28;20512;-77
2022/06/05 13:01:25;;;;;;;16.60;9.38;;;32.40;99.90;;;;;;5015745;28;20049;-78
2022/06/05 13:03:58;;;;;;;16.70;7.70;;;32.60;99.90;;;;;;5017023;28;20048;-77
2022/06/05 13:06:38;;;;;;;14.45;8.18;;;32.60;99.90;;;;;;5028030;28;20091;-78
2022/06/05 13:09:16;;;;;;;12.32;8.00;;;32.70;99.90;;;;;;5019487;28;20050;-78
2022/06/05 13:11:48;;;;;;;13.27;7.65;;;32.80;99.90;;;;;;5024219;28;20073;-77
2022/06/05 13:14:25;;;;;;;14.02;7.55;;;32.70;99.90;;;;;;5026760;28;20049;-77
2022/06/05 13:17:08;;;;;;;17.08;7.70;;;32.80;99.90;;;;;;5034599;28;20087;-77
2022/06/05 13:19:42;;;;;;;17.95;7.22;;;32.90;99.90;;;;;;5034959;28;20064;-76